createdAt,value
2018-11-27T00:02:02.168Z,9.70
2018-11-27T00:04:35.109Z,10.77
2018-11-27T00:07:08.036Z,12.53
2018-11-27T00:09:40.120Z,11.13
2018-11-27T00:12:12.217Z,10.90
2018-11-27T00:14:44.268Z,10.37
2018-11-27T00:17:16.339Z,12.20
2018-11-27T00:19:48.422Z,12.00
2018-11-27T00:22:20.609Z,12.63
2018-11-27T00:24:53.538Z,13.37
2018-11-27T00:27:25.612Z,11.30
2018-11-27T00:29:57.730Z,11.30
2018-11-27T00:32:29.806Z,11.70
2018-11-27T00:35:01.913Z,12.80
2018-11-27T00:37:33.965Z,12.03
2018-11-27T00:40:08.717Z,11.90
2018-11-27T00:42:40.758Z,11.57
2018-11-27T00:45:22.648Z,11.10
2018-11-27T00:47:54.748Z,11.60
2018-11-27T00:50:26.969Z,12.40
2018-11-27T00:52:58.943Z,12.43
2018-11-27T00:55:31.047Z,11.43
2018-11-27T00:58:03.194Z,12.50
2018-11-27T01:00:35.240Z,11.60
2018-11-27T01:03:07.644Z,9.80
2018-11-27T01:05:39.727Z,11.23
2018-11-27T01:08:11.763Z,12.40
2018-11-27T01:10:43.842Z,11.30
2018-11-27T01:13:15.900Z,12.60
2018-11-27T01:15:47.936Z,14.00
2018-11-27T01:18:19.989Z,14.30
2018-11-27T01:20:52.037Z,13.27
2018-11-27T01:23:26.712Z,12.80
2018-11-27T01:25:59.631Z,13.40
2018-11-27T01:28:31.671Z,14.50
2018-11-27T01:31:03.736Z,12.97
2018-11-27T01:33:35.809Z,12.53
2018-11-27T01:36:09.678Z,16.00
2018-11-27T01:38:40.982Z,14.27
2018-11-27T01:41:13.121Z,13.47
2018-11-27T01:43:45.174Z,13.33
2018-11-27T01:46:17.338Z,14.43
2018-11-27T01:48:49.404Z,15.13
2018-11-27T01:51:21.584Z,14.40
2018-11-27T01:53:53.605Z,14.93
2018-11-27T01:56:25.645Z,14.50
2018-11-27T01:58:57.738Z,13.90
2018-11-27T02:01:29.836Z,15.73
2018-11-27T02:04:02.068Z,14.67
2018-11-27T02:06:34.104Z,12.60
2018-11-27T02:09:08.436Z,15.67
2018-11-27T02:11:40.585Z,13.30
2018-11-27T02:14:12.650Z,13.00
2018-11-27T02:16:44.690Z,13.73
2018-11-27T02:19:16.779Z,12.23
2018-11-27T02:21:48.850Z,15.70
2018-11-27T02:24:20.914Z,11.93
2018-11-27T02:26:53.062Z,14.30
2018-11-27T02:29:25.208Z,13.07
2018-11-27T02:31:57.359Z,13.90
2018-11-27T02:34:30.327Z,14.50
2018-11-27T02:37:02.569Z,13.77
2018-11-27T02:39:34.641Z,14.50
2018-11-27T02:42:08.680Z,14.40
2018-11-27T02:44:40.693Z,14.50
2018-11-27T02:47:13.028Z,16.67
2018-11-27T02:49:45.221Z,14.07
2018-11-27T02:52:17.345Z,12.87
2018-11-27T02:54:52.657Z,12.43
2018-11-27T02:57:24.690Z,13.70
2018-11-27T02:59:56.743Z,13.37
2018-11-27T03:02:28.883Z,14.63
2018-11-27T03:05:01.134Z,12.40
2018-11-27T03:07:33.101Z,12.23
2018-11-27T03:10:05.609Z,12.80
2018-11-27T03:12:37.784Z,12.47
2018-11-27T03:15:15.478Z,13.83
2018-11-27T03:17:47.525Z,12.53
2018-11-27T03:20:19.844Z,12.10
2018-11-27T03:22:52.683Z,11.90
2018-11-27T03:25:25.202Z,12.90
2018-11-27T03:27:57.483Z,13.30
2018-11-27T03:30:29.601Z,12.90
2018-11-27T03:33:01.651Z,11.20
2018-11-27T03:35:33.784Z,11.77
2018-11-27T03:38:05.863Z,11.63
2018-11-27T03:40:38.144Z,13.40
2018-11-27T03:43:10.184Z,13.00
2018-11-27T03:45:42.233Z,13.23
2018-11-27T03:48:14.289Z,14.20
2018-11-27T03:50:46.278Z,12.30
2018-11-27T03:53:20.141Z,12.00
2018-11-27T03:55:52.216Z,13.73
2018-11-27T03:58:24.339Z,11.90
2018-11-27T04:00:57.217Z,14.20
2018-11-27T04:03:29.478Z,14.40
2018-11-27T04:06:01.745Z,13.40
2018-11-27T04:08:33.794Z,15.30
2018-11-27T04:11:05.913Z,14.00
2018-11-27T04:13:37.965Z,13.67
2018-11-27T04:16:10.047Z,13.53
2018-11-27T04:18:42.146Z,20.13
2018-11-27T04:21:14.224Z,15.40
2018-11-27T04:23:46.226Z,16.23
2018-11-27T04:26:18.282Z,16.00
2018-11-27T04:28:50.258Z,14.33
2018-11-27T04:31:22.392Z,13.30
2018-11-27T04:33:54.473Z,16.07
2018-11-27T04:36:26.609Z,14.43
2018-11-27T04:38:59.178Z,14.77
2018-11-27T04:41:31.326Z,13.60
2018-11-27T04:44:03.401Z,14.73
2018-11-27T04:46:35.525Z,13.97
2018-11-27T04:49:08.468Z,14.17
2018-11-27T04:51:40.519Z,13.13
2018-11-27T04:54:12.614Z,13.90
2018-11-27T04:56:44.731Z,14.97
2018-11-27T04:59:16.779Z,14.07
2018-11-27T05:01:48.850Z,14.70
2018-11-27T05:04:20.896Z,13.60
2018-11-27T05:06:52.880Z,14.33
2018-11-27T05:09:24.929Z,13.20
2018-11-27T05:11:57.096Z,13.60
2018-11-27T05:14:29.152Z,14.50
2018-11-27T05:17:01.250Z,13.70
2018-11-27T05:19:33.259Z,14.80
2018-11-27T05:22:05.349Z,12.97
2018-11-27T05:24:37.386Z,12.50
2018-11-27T05:27:09.481Z,13.80
2018-11-27T05:29:41.558Z,13.03
2018-11-27T05:32:13.649Z,14.00
2018-11-27T05:34:46.659Z,12.03
2018-11-27T05:37:18.740Z,13.97
2018-11-27T05:39:50.886Z,14.13
2018-11-27T05:42:22.975Z,13.13
2018-11-27T05:44:55.116Z,13.77
2018-11-27T05:47:27.186Z,12.67
2018-11-27T05:50:01.942Z,14.00
2018-11-27T05:52:33.945Z,14.47
2018-11-27T05:55:06.474Z,16.40
2018-11-27T05:57:38.760Z,12.17
2018-11-27T06:00:21.468Z,14.80
2018-11-27T06:02:58.270Z,13.00
2018-11-27T06:05:30.672Z,14.63
2018-11-27T06:08:02.868Z,13.00
2018-11-27T06:10:35.220Z,13.27
2018-11-27T06:13:07.271Z,13.93
2018-11-27T06:15:39.412Z,16.27
2018-11-27T06:18:12.368Z,14.87
2018-11-27T06:20:44.482Z,13.40
2018-11-27T06:23:16.887Z,14.43
2018-11-27T06:25:49.016Z,15.30
2018-11-27T06:28:21.280Z,14.07
2018-11-27T06:30:53.502Z,13.93
2018-11-27T06:33:25.759Z,12.90
2018-11-27T06:35:57.840Z,14.33
2018-11-27T06:38:29.904Z,13.23
2018-11-27T06:41:02.083Z,14.80
2018-11-27T06:43:34.249Z,14.97
2018-11-27T06:46:06.612Z,15.43
2018-11-27T06:48:38.734Z,14.20
2018-11-27T06:51:10.810Z,14.77
2018-11-27T06:53:42.921Z,14.40
2018-11-27T06:56:15.052Z,15.20
2018-11-27T06:58:47.120Z,17.00
2018-11-27T07:01:19.221Z,14.50
2018-11-27T07:03:51.498Z,16.67
2018-11-27T07:06:24.546Z,15.17
2018-11-27T07:08:56.606Z,14.70
2018-11-27T07:11:31.596Z,15.53
2018-11-27T07:14:03.694Z,18.07
2018-11-27T07:16:35.938Z,15.17
2018-11-27T07:19:08.234Z,13.47
2018-11-27T07:21:40.382Z,15.03
2018-11-27T07:24:12.350Z,13.23
2018-11-27T07:26:44.494Z,12.70
2018-11-27T07:29:16.548Z,13.50
2018-11-27T07:31:50.793Z,12.27
2018-11-27T07:34:24.721Z,13.80
2018-11-27T07:36:56.932Z,12.00
2018-11-27T07:39:29.068Z,12.30
2018-11-27T07:42:01.282Z,13.50
2018-11-27T07:44:33.302Z,12.80
2018-11-27T07:47:05.397Z,12.87
2018-11-27T07:49:37.642Z,12.40
2018-11-27T07:52:09.692Z,13.00
2018-11-27T07:54:41.808Z,13.07
2018-11-27T07:57:16.105Z,13.13
2018-11-27T07:59:48.645Z,13.93
2018-11-27T08:02:20.868Z,13.70
2018-11-27T08:04:53.651Z,13.80
2018-11-27T08:07:26.220Z,15.80
2018-11-27T08:10:01.521Z,13.20
2018-11-27T08:12:35.022Z,15.20
2018-11-27T08:15:11.944Z,13.50
2018-11-27T08:17:44.454Z,12.67
2018-11-27T08:20:21.358Z,13.13
2018-11-27T08:22:53.836Z,14.73
2018-11-27T08:25:26.506Z,16.50
2018-11-27T08:28:02.713Z,13.63
2018-11-27T08:30:34.842Z,17.00
2018-11-27T08:33:07.372Z,15.67
2018-11-27T08:35:39.510Z,13.60
2018-11-27T08:38:11.587Z,14.50
2018-11-27T08:40:43.843Z,14.63
2018-11-27T08:43:16.032Z,16.00
2018-11-27T08:45:48.202Z,17.30
2018-11-27T08:48:20.318Z,14.37
2018-11-27T08:50:53.059Z,16.13
2018-11-27T08:53:25.947Z,14.00
2018-11-27T08:55:58.317Z,14.57
2018-11-27T08:58:30.594Z,14.50
2018-11-27T09:01:02.755Z,15.23
2018-11-27T09:03:34.918Z,15.27
2018-11-27T09:06:07.639Z,15.33
2018-11-27T09:08:39.796Z,14.40
2018-11-27T09:11:11.896Z,16.63
2018-11-27T09:13:44.142Z,15.30
2018-11-27T09:16:16.726Z,14.80
2018-11-27T09:18:49.150Z,16.40
2018-11-27T09:21:21.240Z,14.63
2018-11-27T09:23:53.699Z,13.70
2018-11-27T09:26:26.170Z,16.17
2018-11-27T09:29:01.540Z,15.27
2018-11-27T09:31:34.674Z,14.60
2018-11-27T09:34:06.901Z,13.10
2018-11-27T09:36:39.836Z,14.27
2018-11-27T09:39:13.154Z,14.53
2018-11-27T09:41:45.250Z,13.70
2018-11-27T09:44:17.392Z,14.47
2018-11-27T09:46:49.463Z,14.07
2018-11-27T09:49:22.030Z,12.60
2018-11-27T09:51:54.907Z,14.10
2018-11-27T09:54:29.277Z,14.60
2018-11-27T09:57:03.889Z,13.57
2018-11-27T09:59:40.508Z,14.10
2018-11-27T10:02:14.746Z,14.80
2018-11-27T10:04:46.942Z,15.33
2018-11-27T10:07:19.838Z,14.77
2018-11-27T10:09:54.466Z,13.63
2018-11-27T10:12:26.564Z,13.50
2018-11-27T10:14:58.998Z,14.13
2018-11-27T10:17:31.843Z,17.03
2018-11-27T10:20:04.067Z,13.93
2018-11-27T10:22:36.196Z,15.17
2018-11-27T10:25:10.770Z,14.87
2018-11-27T10:27:43.456Z,13.27
2018-11-27T10:30:26.448Z,12.40
2018-11-27T10:33:00.423Z,14.73
2018-11-27T10:36:04.214Z,13.10
2018-11-27T10:38:36.284Z,14.37
2018-11-27T10:41:08.831Z,13.30
2018-11-27T10:43:41.153Z,14.47
2018-11-27T10:46:13.222Z,13.53
2018-11-27T10:48:45.309Z,14.10
2018-11-27T10:51:17.628Z,13.40
2018-11-27T10:53:49.684Z,12.73
2018-11-27T10:56:24.416Z,13.10
2018-11-27T10:58:55.543Z,13.07
2018-11-27T11:01:45.986Z,15.93
2018-11-27T11:04:18.303Z,14.50
2018-11-27T11:06:51.681Z,13.70
2018-11-27T11:09:24.340Z,11.90
2018-11-27T11:11:59.517Z,13.97
2018-11-27T11:14:32.599Z,13.70
2018-11-27T11:17:06.444Z,14.70
2018-11-27T11:19:39.424Z,14.33
2018-11-27T11:22:11.641Z,15.00
2018-11-27T11:24:44.315Z,14.80
2018-11-27T11:27:16.622Z,15.20
2018-11-27T11:29:48.688Z,15.67
2018-11-27T11:32:20.752Z,15.53
2018-11-27T11:34:54.074Z,13.07
2018-11-27T11:37:26.915Z,12.33
2018-11-27T11:39:59.615Z,13.53
2018-11-27T11:42:32.343Z,13.90
2018-11-27T11:45:04.635Z,13.73
2018-11-27T11:47:36.971Z,13.67
2018-11-27T11:50:34.309Z,13.30
2018-11-27T11:53:17.401Z,13.00
2018-11-27T11:55:50.383Z,12.70
2018-11-27T11:58:22.552Z,13.50
2018-11-27T12:00:57.029Z,13.50
2018-11-27T12:03:30.167Z,14.00
2018-11-27T12:06:03.622Z,12.30
2018-11-27T12:08:35.687Z,11.53
2018-11-27T12:11:07.839Z,12.60
2018-11-27T12:13:39.919Z,12.17
2018-11-27T12:16:12.399Z,13.00
2018-11-27T12:18:44.909Z,11.47
2018-11-27T12:21:17.959Z,10.37
2018-11-27T12:23:53.220Z,12.57
2018-11-27T12:26:25.797Z,14.10
2018-11-27T12:28:58.209Z,12.93
2018-11-27T12:31:33.510Z,11.77
2018-11-27T12:34:05.710Z,13.00
2018-11-27T12:36:37.800Z,12.13
2018-11-27T12:39:11.319Z,11.60
2018-11-27T12:41:43.405Z,12.20
2018-11-27T12:44:15.639Z,12.87
2018-11-27T12:46:47.940Z,11.67
2018-11-27T12:49:20.126Z,11.40
2018-11-27T12:51:52.575Z,13.00
2018-11-27T12:54:27.733Z,13.73
2018-11-27T12:57:00.282Z,11.80
2018-11-27T12:59:32.621Z,12.77
2018-11-27T13:02:04.857Z,13.00
2018-11-27T13:04:37.110Z,11.27
2018-11-27T13:07:09.732Z,14.00
2018-11-27T13:09:41.869Z,14.30
2018-11-27T13:12:13.941Z,12.77
2018-11-27T13:14:46.158Z,12.77
2018-11-27T13:17:18.268Z,12.63
2018-11-27T13:19:50.401Z,12.53
2018-11-27T13:22:22.774Z,12.67
2018-11-27T13:24:55.701Z,12.50
2018-11-27T13:27:27.908Z,13.17
2018-11-27T13:30:00.072Z,13.10
2018-11-27T13:32:33.642Z,12.20
2018-11-27T13:35:05.609Z,14.87
2018-11-27T13:37:38.701Z,16.77
2018-11-27T13:40:13.144Z,15.60
2018-11-27T13:42:45.317Z,17.60
2018-11-27T13:45:18.135Z,16.00
2018-11-27T13:47:50.328Z,16.37
2018-11-27T13:50:24.539Z,16.83
2018-11-27T13:52:59.862Z,18.20
2018-11-27T13:55:32.188Z,17.13
2018-11-27T13:58:04.537Z,19.43
2018-11-27T14:00:37.539Z,19.00
2018-11-27T14:03:10.961Z,19.60
2018-11-27T14:05:42.870Z,18.63
2018-11-27T14:08:15.295Z,17.13
2018-11-27T14:10:47.446Z,18.30
2018-11-27T14:13:20.729Z,18.07
2018-11-27T14:15:53.926Z,18.97
2018-11-27T14:18:26.646Z,17.50
2018-11-27T14:20:59.630Z,16.87
2018-11-27T14:23:31.885Z,19.07
2018-11-27T14:26:04.099Z,19.00
2018-11-27T14:28:36.519Z,17.57
2018-11-27T14:31:11.890Z,17.17
2018-11-27T14:33:42.537Z,17.63
2018-11-27T14:36:17.323Z,16.37
2018-11-27T14:38:49.411Z,17.33
2018-11-27T14:41:24.744Z,17.73
2018-11-27T14:43:55.135Z,15.97
2018-11-27T14:46:27.958Z,15.03
2018-11-27T14:49:00.389Z,13.80
2018-11-27T14:51:34.037Z,14.27
2018-11-27T14:54:09.617Z,14.33
2018-11-27T14:56:41.777Z,14.90
2018-11-27T14:59:13.873Z,16.40
2018-11-27T15:01:46.088Z,14.33
2018-11-27T15:04:18.179Z,12.90
2018-11-27T15:06:50.416Z,14.23
2018-11-27T15:09:23.101Z,13.30
2018-11-27T15:11:55.530Z,14.07
2018-11-27T15:14:28.281Z,13.80
2018-11-27T15:17:03.952Z,13.20
2018-11-27T15:19:36.610Z,13.10
2018-11-27T15:22:08.840Z,12.83
2018-11-27T15:24:41.034Z,12.17
2018-11-27T15:27:13.136Z,12.63
2018-11-27T15:29:45.361Z,13.00
2018-11-27T15:32:17.557Z,11.43
2018-11-27T15:34:49.670Z,12.73
2018-11-27T15:37:21.859Z,12.10
2018-11-27T15:39:54.750Z,12.57
2018-11-27T15:42:27.368Z,11.43
2018-11-27T15:44:59.976Z,12.30
2018-11-27T15:47:32.812Z,11.53
2018-11-27T15:50:05.608Z,12.00
2018-11-27T15:52:38.339Z,12.60
2018-11-27T15:55:40.390Z,13.83
2018-11-27T15:58:16.557Z,11.33
2018-11-27T16:00:51.835Z,13.10
2018-11-27T16:03:24.549Z,10.17
2018-11-27T16:05:56.857Z,13.13
2018-11-27T16:08:30.436Z,11.33
2018-11-27T16:11:03.156Z,11.60
2018-11-27T16:13:35.549Z,12.00
2018-11-27T16:16:08.266Z,12.73
2018-11-27T16:18:40.337Z,12.20
2018-11-27T16:21:12.433Z,16.27
2018-11-27T16:23:44.928Z,12.30
2018-11-27T16:26:18.223Z,12.77
2018-11-27T16:28:50.382Z,12.50
2018-11-27T16:31:24.483Z,11.10
2018-11-27T16:33:56.304Z,13.27
2018-11-27T16:36:31.929Z,14.07
2018-11-27T16:39:05.667Z,15.53
2018-11-27T16:41:38.828Z,14.57
2018-11-27T16:44:11.020Z,12.90
2018-11-27T16:46:43.165Z,12.50
2018-11-27T16:49:15.324Z,12.40
2018-11-27T16:51:47.756Z,13.87
2018-11-27T16:54:19.868Z,14.90
2018-11-27T16:56:51.998Z,11.97
2018-11-27T16:59:24.382Z,13.87
2018-11-27T17:01:56.541Z,11.43
2018-11-27T17:04:28.759Z,13.77
2018-11-27T17:07:01.321Z,12.73
2018-11-27T17:09:34.458Z,12.53
2018-11-27T17:12:06.669Z,14.37
2018-11-27T17:14:38.796Z,12.30
2018-11-27T17:17:10.909Z,13.10
2018-11-27T17:19:43.192Z,13.13
2018-11-27T17:22:16.289Z,14.50
2018-11-27T17:24:48.531Z,13.10
2018-11-27T17:27:20.594Z,13.93
2018-11-27T17:29:52.665Z,12.73
2018-11-27T17:32:24.867Z,13.70
2018-11-27T17:34:56.965Z,19.43
2018-11-27T17:37:29.085Z,20.77
2018-11-27T17:40:03.501Z,20.00
2018-11-27T17:42:35.572Z,18.10
2018-11-27T17:45:11.070Z,18.17
2018-11-27T17:47:43.370Z,19.07
2018-11-27T17:50:19.405Z,15.37
2018-11-27T17:52:51.529Z,15.90
2018-11-27T17:55:23.548Z,16.50
2018-11-27T17:57:55.712Z,19.53
2018-11-27T18:00:31.189Z,19.50
2018-11-27T18:03:08.697Z,22.17
2018-11-27T18:05:40.994Z,19.60
2018-11-27T18:08:13.078Z,17.80
2018-11-27T18:10:45.210Z,14.83
2018-11-27T18:13:17.329Z,16.70
2018-11-27T18:15:49.463Z,16.00
2018-11-27T18:18:21.560Z,17.07
2018-11-27T18:20:53.848Z,15.67
2018-11-27T18:23:26.079Z,17.73
2018-11-27T18:25:58.219Z,15.43
2018-11-27T18:28:30.367Z,16.40
2018-11-27T18:31:02.691Z,17.47
2018-11-27T18:33:34.906Z,18.50
2018-11-27T18:36:09.168Z,19.87
2018-11-27T18:38:44.963Z,17.47
2018-11-27T18:41:18.320Z,17.30
2018-11-27T18:43:50.623Z,16.27
2018-11-27T18:46:22.602Z,16.17
2018-11-27T18:48:54.604Z,16.53
2018-11-27T18:51:26.904Z,17.40
2018-11-27T18:53:59.216Z,15.40
2018-11-27T18:56:31.312Z,17.47
2018-11-27T18:59:03.567Z,16.60
2018-11-27T19:01:35.693Z,16.37
2018-11-27T19:04:08.150Z,16.70
2018-11-27T19:06:40.218Z,17.30
2018-11-27T19:09:12.755Z,18.17
2018-11-27T19:11:44.809Z,15.80
2018-11-27T19:14:17.076Z,16.97
2018-11-27T19:16:49.132Z,16.97
2018-11-27T19:19:21.269Z,17.97
2018-11-27T19:21:54.163Z,17.00
2018-11-27T19:24:26.644Z,20.13
2018-11-27T19:27:00.429Z,19.40
2018-11-27T19:29:32.794Z,20.53
2018-11-27T19:32:04.921Z,20.80
2018-11-27T19:34:37.052Z,19.73
2018-11-27T19:37:09.136Z,19.60
2018-11-27T19:39:42.509Z,21.80
2018-11-27T19:42:14.886Z,23.50
2018-11-27T19:44:46.900Z,21.13
2018-11-27T19:47:19.283Z,19.53
2018-11-27T19:49:51.922Z,21.27
2018-11-27T19:52:25.979Z,21.60
2018-11-27T19:55:00.256Z,23.50
2018-11-27T19:57:32.583Z,27.60
2018-11-27T20:00:05.000Z,26.63
2018-11-27T20:02:37.278Z,25.13
2018-11-27T20:05:13.999Z,26.50
2018-11-27T20:07:47.301Z,26.53
2018-11-27T20:10:20.455Z,24.47
2018-11-27T20:12:52.523Z,24.40
2018-11-27T20:15:29.543Z,23.50
2018-11-27T20:18:07.418Z,23.93
2018-11-27T20:20:40.452Z,25.60
2018-11-27T20:23:12.638Z,22.40
2018-11-27T20:25:45.211Z,21.97
2018-11-27T20:28:17.748Z,23.60
2018-11-27T20:30:50.633Z,22.30
2018-11-27T20:33:22.598Z,21.73
2018-11-27T20:35:54.689Z,22.60
2018-11-27T20:38:26.826Z,25.73
2018-11-27T20:40:58.965Z,23.60
2018-11-27T20:43:31.298Z,25.40
2018-11-27T20:46:03.584Z,24.73
2018-11-27T20:48:35.943Z,24.80
2018-11-27T20:51:08.486Z,24.77
2018-11-27T20:53:41.548Z,24.00
2018-11-27T20:56:16.997Z,23.67
2018-11-27T20:58:53.685Z,25.53
2018-11-27T21:01:25.938Z,22.07
2018-11-27T21:03:58.911Z,22.30
2018-11-27T21:06:30.984Z,22.13
2018-11-27T21:09:04.429Z,23.07
2018-11-27T21:11:37.261Z,23.80
2018-11-27T21:14:09.374Z,22.13
2018-11-27T21:16:44.419Z,22.60
2018-11-27T21:19:14.831Z,23.13
2018-11-27T21:21:47.024Z,22.60
2018-11-27T21:24:19.081Z,23.07
2018-11-27T21:26:51.158Z,20.17
2018-11-27T21:29:23.284Z,19.67
2018-11-27T21:31:55.551Z,21.77
2018-11-27T21:34:27.850Z,23.17
2018-11-27T21:37:00.182Z,23.87
2018-11-27T21:39:32.343Z,23.17
2018-11-27T21:42:04.490Z,21.10
2018-11-27T21:44:36.592Z,23.03
2018-11-27T21:47:09.770Z,22.63
2018-11-27T21:49:42.039Z,24.93
2018-11-27T21:52:15.082Z,23.20
2018-11-27T21:54:47.039Z,22.20
2018-11-27T21:57:19.157Z,23.00
2018-11-27T21:59:51.233Z,22.63
2018-11-27T22:02:23.418Z,23.80
2018-11-27T22:04:56.226Z,24.73
2018-11-27T22:07:28.187Z,24.87
2018-11-27T22:10:00.232Z,25.00
2018-11-27T22:12:33.585Z,24.80
2018-11-27T22:15:06.949Z,24.13
2018-11-27T22:17:39.115Z,26.10
2018-11-27T22:20:14.446Z,23.50
2018-11-27T22:22:46.585Z,25.50
2018-11-27T22:25:18.779Z,24.20
2018-11-27T22:27:50.824Z,25.73
2018-11-27T22:30:23.233Z,24.40
2018-11-27T22:32:56.577Z,24.67
2018-11-27T22:35:31.495Z,25.00
2018-11-27T22:38:03.578Z,21.40
2018-11-27T22:40:36.514Z,23.93
2018-11-27T22:43:09.616Z,23.23
2018-11-27T22:45:42.597Z,22.60
2018-11-27T22:48:15.070Z,21.67
2018-11-27T22:50:47.098Z,24.67
2018-11-27T22:53:19.206Z,23.80
2018-11-27T22:55:51.266Z,24.93
2018-11-27T22:58:24.211Z,21.70
2018-11-27T23:00:56.291Z,24.27
2018-11-27T23:03:29.291Z,22.93
2018-11-27T23:06:01.402Z,19.77
2018-11-27T23:08:33.552Z,21.93
2018-11-27T23:11:05.586Z,21.77
2018-11-27T23:13:37.565Z,22.53
2018-11-27T23:16:09.880Z,22.63
2018-11-27T23:18:42.061Z,22.63
2018-11-27T23:21:14.102Z,25.13
2018-11-27T23:23:46.195Z,24.73
2018-11-27T23:26:18.136Z,23.80
2018-11-27T23:28:50.124Z,24.90
2018-11-27T23:31:23.022Z,24.13
2018-11-27T23:33:55.233Z,24.23
2018-11-27T23:36:27.442Z,20.60
2018-11-27T23:38:59.653Z,22.40
2018-11-27T23:41:31.690Z,21.97
2018-11-27T23:44:04.009Z,23.60
2018-11-27T23:46:36.051Z,22.00
2018-11-27T23:49:08.188Z,22.07
2018-11-27T23:51:40.206Z,21.97
2018-11-27T23:54:15.013Z,23.00
2018-11-27T23:56:48.871Z,25.23
2018-11-27T23:59:19.998Z,25.00
